Time;durP1;ratioP1;P1;durP2;ratioP2;P2;SDS_P1;SDS_P2;PMS_P1;PMS_P2;Temp;Humidity;BMP_temperature;BMP_pressure;BME280_temperature;BME280_humidity;BME280_pressure;Samples;Min_cycle;Max_cycle;Signal;HPM_P1;HPM_P2
2021/05/13 00:02:16;;;;;;;6.43;1.30;;;7.70;99.90;;;;;;5038347;28;20013;-87
2021/05/13 00:04:41;;;;;;;6.63;1.85;;;7.70;99.90;;;;;;5038098;28;20466;-87
2021/05/13 00:07:07;;;;;;;6.07;1.45;;;8.90;99.90;;;;;;5056264;28;20075;-86
2021/05/13 00:09:33;;;;;;;8.43;1.70;;;7.60;99.90;;;;;;5037951;28;20029;-86
2021/05/13 00:12:00;;;;;;;5.32;1.45;;;7.60;99.90;;;;;;5038127;28;20052;-86
2021/05/13 00:14:26;;;;;;;6.00;1.75;;;7.60;99.90;;;;;;5055784;28;20029;-86
2021/05/13 00:16:52;;;;;;;5.53;1.33;;;7.50;99.90;;;;;;5037740;28;20032;-87
2021/05/13 00:19:17;;;;;;;6.70;1.73;;;7.50;99.90;;;;;;5045426;28;20028;-86
2021/05/13 00:21:44;;;;;;;5.65;1.10;;;7.50;99.90;;;;;;5075294;28;20096;-86
2021/05/13 00:24:12;;;;;;;7.00;2.10;;;7.40;99.90;;;;;;5052700;28;20028;-86
2021/05/13 00:26:41;;;;;;;6.95;1.20;;;7.40;99.90;;;;;;5037238;28;20486;-86
2021/05/13 00:29:25;;;;;;;4.32;1.05;;;7.30;99.90;;;;;;5037511;28;20490;-87
2021/05/13 00:31:51;;;;;;;7.50;1.60;;;7.40;99.90;;;;;;5056036;28;20025;-86
2021/05/13 00:34:17;;;;;;;6.85;2.10;;;7.20;99.90;;;;;;5038644;28;20021;-86
2021/05/13 00:36:42;;;;;;;4.25;1.23;;;7.20;99.90;;;;;;5037649;28;20079;-87
2021/05/13 00:39:10;;;;;;;4.70;1.63;;;7.30;99.90;;;;;;5048621;28;20032;-87
2021/05/13 00:41:36;;;;;;;5.75;1.50;;;7.30;99.90;;;;;;5037522;28;20059;-86
2021/05/13 00:44:03;;;;;;;4.80;1.48;;;7.30;99.90;;;;;;5037331;28;20021;-87
2021/05/13 00:46:30;;;;;;;7.82;1.33;;;7.20;99.90;;;;;;5037578;28;20385;-86
2021/05/13 00:49:11;;;;;;;5.75;1.65;;;9.90;99.90;;;;;;5045450;28;20029;-86
2021/05/13 00:51:37;;;;;;;3.90;1.90;;;7.20;99.90;;;;;;5037152;28;20021;-87
2021/05/13 00:54:04;;;;;;;6.43;1.75;;;7.20;99.90;;;;;;5037480;28;20017;-86
2021/05/13 00:56:30;;;;;;;5.70;1.75;;;7.30;99.90;;;;;;5036850;28;20032;-87
2021/05/13 00:59:00;;;;;;;3.63;1.30;;;7.00;99.90;;;;;;5066417;28;20021;-87
2021/05/13 01:01:36;;;;;;;8.18;2.03;;;7.10;99.90;;;;;;5075288;28;20067;-87
2021/05/13 01:04:02;;;;;;;3.50;1.45;;;7.10;99.90;;;;;;5053081;28;20043;-86
2021/05/13 01:06:27;;;;;;;7.88;2.05;;;7.10;99.90;;;;;;5037063;28;20111;-87
2021/05/13 01:08:53;;;;;;;4.70;1.77;;;9.00;99.90;;;;;;5036971;28;20021;-87
2021/05/13 01:11:18;;;;;;;3.53;1.50;;;7.00;99.90;;;;;;5036972;28;20033;-87
2021/05/13 01:14:01;;;;;;;5.03;2.40;;;7.00;99.90;;;;;;5036912;28;20078;-86
2021/05/13 01:16:47;;;;;;;8.18;2.10;;;7.00;99.90;;;;;;5036721;28;20029;-86
2021/05/13 01:19:14;;;;;;;4.38;2.00;;;7.00;99.90;;;;;;5059116;28;20513;-86
2021/05/13 01:21:40;;;;;;;5.70;1.85;;;7.00;99.90;;;;;;5036832;28;20013;-87
2021/05/13 01:24:06;;;;;;;5.72;1.73;;;7.00;99.90;;;;;;5036675;28;20087;-87
2021/05/13 01:26:32;;;;;;;4.90;2.20;;;7.00;99.90;;;;;;5054989;28;20021;-86
2021/05/13 01:28:59;;;;;;;6.90;2.10;;;7.00;99.90;;;;;;5055389;28;20024;-86
2021/05/13 01:31:25;;;;;;;7.35;2.70;;;8.00;99.90;;;;;;5036583;28;20052;-86
2021/05/13 01:33:50;;;;;;;7.22;1.73;;;6.90;99.90;;;;;;5035685;28;20497;-86
2021/05/13 01:36:16;;;;;;;4.93;1.90;;;6.90;99.90;;;;;;5036326;28;20021;-87
2021/05/13 01:38:41;;;;;;;6.97;2.42;;;6.70;99.90;;;;;;5036652;28;20086;-87
2021/05/13 01:41:07;;;;;;;5.80;2.00;;;6.70;99.90;;;;;;5054158;28;20031;-86
2021/05/13 01:43:33;;;;;;;5.10;2.25;;;6.70;99.90;;;;;;5036161;28;20021;-89
2021/05/13 01:46:00;;;;;;;5.10;1.95;;;6.60;99.90;;;;;;5036167;28;20083;-87
2021/05/13 01:48:27;;;;;;;6.22;2.13;;;6.60;99.90;;;;;;5061274;28;20066;-86
2021/05/13 01:50:53;;;;;;;10.93;1.63;;;6.50;99.90;;;;;;5055712;28;20340;-88
2021/05/13 01:53:19;;;;;;;4.18;1.60;;;6.70;99.90;;;;;;5054898;28;20067;-87
2021/05/13 01:55:45;;;;;;;5.50;2.53;;;6.50;99.90;;;;;;5035968;28;20397;-87
2021/05/13 01:58:10;;;;;;;3.72;1.83;;;6.50;99.90;;;;;;5057513;28;20104;-87
2021/05/13 02:00:37;;;;;;;3.97;1.38;;;6.40;99.90;;;;;;5039235;28;20056;-87
2021/05/13 02:03:04;;;;;;;5.70;1.50;;;6.40;99.90;;;;;;5053166;28;20028;-87
2021/05/13 02:05:29;;;;;;;4.95;1.65;;;6.40;99.90;;;;;;5038035;28;20027;-87
2021/05/13 02:07:55;;;;;;;4.85;1.75;;;6.30;99.90;;;;;;5052071;28;20112;-87
2021/05/13 02:10:21;;;;;;;9.73;2.20;;;6.40;99.90;;;;;;5035545;28;20033;-87
2021/05/13 02:12:48;;;;;;;8.68;1.67;;;6.40;99.90;;;;;;5035800;28;20078;-88
2021/05/13 02:15:18;;;;;;;3.90;1.30;;;6.40;99.90;;;;;;5054146;28;20462;-88
2021/05/13 02:17:45;;;;;;;5.00;1.85;;;6.40;99.90;;;;;;5053767;28;20435;-88
2021/05/13 02:20:14;;;;;;;5.75;2.05;;;8.70;99.90;;;;;;5053980;28;20025;-86
2021/05/13 02:22:40;;;;;;;;;;;6.50;99.90;;;;;;5036468;28;20028;-86
2021/05/13 02:25:07;;;;;;;6.95;1.50;;;6.40;99.90;;;;;;5053576;28;20263;-87
2021/05/13 02:27:33;;;;;;;3.53;1.40;;;6.50;99.90;;;;;;5035985;28;20017;-87
2021/05/13 02:29:59;;;;;;;6.10;1.58;;;6.30;99.90;;;;;;5035532;28;20032;-87
2021/05/13 02:32:25;;;;;;;2.65;1.48;;;6.30;99.90;;;;;;5053940;28;20078;-87
2021/05/13 02:34:51;;;;;;;5.00;1.90;;;6.20;99.90;;;;;;5053666;28;20091;-87
2021/05/13 02:37:19;;;;;;;6.53;2.10;;;6.30;99.90;;;;;;5036087;28;20025;-87
2021/05/13 02:39:45;;;;;;;5.50;2.47;;;6.30;99.90;;;;;;5053117;28;20083;-87
2021/05/13 02:42:11;;;;;;;6.28;1.92;;;6.20;99.90;;;;;;5053325;28;20049;-87
2021/05/13 02:44:36;;;;;;;7.85;2.25;;;6.30;99.90;;;;;;5037419;28;20024;-87
2021/05/13 02:47:02;;;;;;;4.55;1.65;;;6.30;99.90;;;;;;5054343;28;20025;-87
2021/05/13 02:49:27;;;;;;;9.55;2.17;;;6.20;99.90;;;;;;5059609;28;20437;-87
2021/05/13 02:51:53;;;;;;;4.22;1.60;;;6.10;99.90;;;;;;5060014;28;20024;-87
2021/05/13 02:54:19;;;;;;;8.20;2.22;;;6.20;99.90;;;;;;5059352;28;20508;-87
2021/05/13 02:56:44;;;;;;;4.72;1.90;;;6.20;99.90;;;;;;5059301;28;20037;-86
2021/05/13 02:59:10;;;;;;;9.50;2.30;;;5.90;99.90;;;;;;5052464;28;20032;-87
2021/05/13 03:01:36;;;;;;;4.47;1.80;;;5.90;99.90;;;;;;5039157;28;20027;-87
2021/05/13 03:04:02;;;;;;;5.75;2.00;;;5.90;99.90;;;;;;5038944;28;20021;-86
2021/05/13 03:06:28;;;;;;;2.47;1.40;;;6.10;99.90;;;;;;5048225;28;20017;-87
2021/05/13 03:08:57;;;;;;;4.60;1.80;;;5.80;99.90;;;;;;5044146;28;20094;-87
2021/05/13 03:11:24;;;;;;;5.10;1.52;;;5.90;99.90;;;;;;5038805;28;20044;-86
2021/05/13 03:13:52;;;;;;;5.93;2.15;;;6.00;99.90;;;;;;5038654;28;20025;-87
2021/05/13 03:16:18;;;;;;;5.55;1.73;;;6.00;99.90;;;;;;5040640;28;20017;-87
2021/05/13 03:18:50;;;;;;;2.75;1.42;;;6.00;99.90;;;;;;5038669;28;20437;-87
2021/05/13 03:21:26;;;;;;;5.35;2.38;;;5.90;99.90;;;;;;5038831;28;20386;-87
2021/05/13 03:23:58;;;;;;;6.88;1.52;;;6.00;99.90;;;;;;5056654;28;20041;-86
2021/05/13 03:29:08;;;;;;;5.18;1.92;;;5.90;99.90;;;;;;5057577;28;20032;-88
2021/05/13 03:31:33;;;;;;;6.25;2.30;;;5.90;99.90;;;;;;5038441;28;20025;-88
2021/05/13 03:34:00;;;;;;;3.85;1.95;;;6.10;99.90;;;;;;5038499;28;20025;-87
2021/05/13 03:36:26;;;;;;;4.25;2.28;;;7.70;99.90;;;;;;5039216;28;20017;-88
2021/05/13 03:38:52;;;;;;;3.13;2.10;;;;;;;;;;5038865;28;20489;-87
2021/05/13 03:41:18;;;;;;;3.95;1.55;;;;;;;;;;5038666;28;20064;-88
2021/05/13 03:43:44;;;;;;;6.85;1.92;;;5.80;99.90;;;;;;5056543;28;20025;-88
2021/05/13 03:46:09;;;;;;;4.78;1.90;;;5.60;99.90;;;;;;5038254;28;20478;-87
2021/05/13 03:48:35;;;;;;;6.00;2.28;;;5.70;99.90;;;;;;5039008;28;20032;-88
2021/05/13 03:51:00;;;;;;;5.63;2.20;;;5.70;99.90;;;;;;5038565;28;20029;-87
2021/05/13 03:53:26;;;;;;;7.82;2.60;;;;;;;;;;5038375;28;20036;-87
2021/05/13 03:55:53;;;;;;;6.45;3.30;;;6.00;99.90;;;;;;5055121;28;20040;-87
2021/05/13 03:58:22;;;;;;;12.27;4.60;;;10.30;99.90;;;;;;5038238;28;20017;-88
2021/05/13 04:03:16;;;;;;;8.95;3.35;;;7.10;99.90;;;;;;5056582;28;19904;-88
2021/05/13 04:05:42;;;;;;;6.68;3.47;;;6.20;99.90;;;;;;5038419;28;20079;-88
2021/05/13 04:08:09;;;;;;;9.40;3.60;;;;;;;;;;5076471;28;20111;-88
2021/05/13 04:10:36;;;;;;;6.80;3.65;;;6.20;99.90;;;;;;5055765;28;20032;-87
2021/05/13 04:13:04;;;;;;;5.40;3.40;;;8.60;99.90;;;;;;5037855;28;20025;-87
2021/05/13 04:15:29;;;;;;;6.15;2.95;;;6.20;99.90;;;;;;5055332;28;20390;-88
2021/05/13 04:17:55;;;;;;;7.03;3.38;;;6.10;99.90;;;;;;5037752;28;20029;-87
2021/05/13 04:20:21;;;;;;;5.65;2.92;;;6.10;99.90;;;;;;5041802;28;20063;-87
2021/05/13 04:22:49;;;;;;;7.88;3.83;;;6.30;99.90;;;;;;5039067;28;20426;-87
2021/05/13 04:25:15;;;;;;;5.80;3.63;;;5.70;99.90;;;;;;5037434;28;20036;-87
2021/05/13 04:27:41;;;;;;;6.88;3.20;;;6.30;99.90;;;;;;5037663;28;20024;-87
2021/05/13 04:30:07;;;;;;;4.47;3.25;;;6.50;99.90;;;;;;5038768;28;20025;-87
2021/05/13 04:32:33;;;;;;;6.80;3.92;;;6.60;99.90;;;;;;5037500;28;20021;-87
2021/05/13 04:34:58;;;;;;;8.02;3.35;;;6.60;99.90;;;;;;5036932;28;20040;-88
2021/05/13 04:37:24;;;;;;;7.13;3.67;;;6.70;99.90;;;;;;5037462;28;20022;-87
2021/05/13 04:39:50;;;;;;;7.18;4.50;;;6.70;99.90;;;;;;5041400;28;20106;-87
2021/05/13 04:42:16;;;;;;;6.55;3.53;;;6.80;99.90;;;;;;5055388;28;20021;-88
2021/05/13 04:44:41;;;;;;;7.18;3.63;;;6.90;99.90;;;;;;5036601;28;20124;-87
2021/05/13 04:47:27;;;;;;;9.50;3.83;;;7.00;99.90;;;;;;5037291;28;20013;-88
2021/05/13 04:49:54;;;;;;;5.40;2.80;;;7.20;99.90;;;;;;5044168;28;20437;-88
2021/05/13 04:52:21;;;;;;;8.77;2.78;;;7.20;99.90;;;;;;5036844;28;20025;-88
2021/05/13 04:54:52;;;;;;;11.65;3.15;;;7.30;99.90;;;;;;5036991;28;20397;-87
2021/05/13 04:57:18;;;;;;;7.65;2.97;;;7.80;99.90;;;;;;5036459;28;20039;-87
2021/05/13 04:59:45;;;;;;;9.23;2.83;;;10.00;99.90;;;;;;5037284;28;20033;-88
2021/05/13 05:02:12;;;;;;;9.13;2.95;;;7.60;99.90;;;;;;5036370;28;20547;-88
2021/05/13 05:04:38;;;;;;;6.45;2.72;;;7.60;99.90;;;;;;5036535;28;20474;-89
2021/05/13 05:07:04;;;;;;;5.35;2.50;;;7.80;99.90;;;;;;5036487;28;20025;-89
2021/05/13 05:11:57;;;;;;;3.75;1.95;;;8.00;99.90;;;;;;5075260;28;20049;-80
2021/05/13 05:14:23;;;;;;;5.22;2.47;;;8.10;99.90;;;;;;5046553;28;20024;-81
2021/05/13 05:16:49;;;;;;;4.32;1.50;;;8.20;99.90;;;;;;5077111;28;20041;-81
2021/05/13 05:19:15;;;;;;;5.55;1.75;;;8.30;99.90;;;;;;5061002;28;20021;-78
2021/05/13 05:21:41;;;;;;;5.63;1.92;;;8.40;99.90;;;;;;5036344;28;20120;-79
2021/05/13 05:24:07;;;;;;;5.15;1.85;;;8.50;99.90;;;;;;5038703;28;20112;-78
2021/05/13 05:26:33;;;;;;;6.65;2.30;;;8.60;99.90;;;;;;5057806;28;20024;-78
2021/05/13 05:28:59;;;;;;;8.43;2.30;;;8.70;99.90;;;;;;5072096;28;20095;-77
2021/05/13 05:31:25;;;;;;;4.32;1.95;;;8.80;99.90;;;;;;5075196;28;20431;-78
2021/05/13 05:33:51;;;;;;;2.13;1.20;;;8.80;99.90;;;;;;5056272;28;20029;-79
2021/05/13 05:36:16;;;;;;;4.88;1.90;;;8.90;99.90;;;;;;5037342;28;20021;-78
2021/05/13 05:38:42;;;;;;;4.22;1.73;;;9.00;99.90;;;;;;5056989;28;20029;-77
2021/05/13 05:41:07;;;;;;;4.82;1.75;;;9.10;99.90;;;;;;5073950;28;20031;-77
2021/05/13 05:43:33;;;;;;;6.50;1.60;;;9.20;99.90;;;;;;5053331;28;20021;-78
2021/05/13 05:45:58;;;;;;;3.75;1.67;;;9.40;99.90;;;;;;5049689;28;20017;-77
2021/05/13 05:48:24;;;;;;;3.88;1.48;;;9.50;99.90;;;;;;5064327;23;20041;-78
2021/05/13 05:50:50;;;;;;;5.13;1.60;;;9.60;99.90;;;;;;5058211;28;20043;-78
2021/05/13 05:53:15;;;;;;;3.20;1.42;;;9.80;99.90;;;;;;5068007;28;20474;-78
2021/05/13 05:55:41;;;;;;;4.00;1.40;;;9.90;99.90;;;;;;5036730;28;20033;-78
2021/05/13 05:58:07;;;;;;;4.50;1.60;;;10.00;99.90;;;;;;5054708;28;20078;-77
2021/05/13 06:00:33;;;;;;;4.20;2.10;;;10.10;99.90;;;;;;5066303;28;20088;-79
2021/05/13 06:02:58;;;;;;;4.15;1.55;;;10.30;99.90;;;;;;5055069;28;20021;-79
2021/05/13 06:05:24;;;;;;;6.22;2.00;;;10.40;99.90;;;;;;5055946;28;20033;-77
2021/05/13 06:07:51;;;;;;;4.75;2.10;;;10.50;99.90;;;;;;5054782;28;20024;-78
2021/05/13 06:10:16;;;;;;;3.08;1.70;;;10.60;99.90;;;;;;5056026;28;20032;-79
2021/05/13 06:12:43;;;;;;;6.72;2.60;;;10.80;99.90;;;;;;5035894;28;20112;-78
2021/05/13 06:15:12;;;;;;;5.07;2.22;;;10.90;99.90;;;;;;5064386;23;20051;-79
2021/05/13 06:17:39;;;;;;;3.97;1.85;;;11.00;99.90;;;;;;5076428;28;20121;-79
2021/05/13 06:20:07;;;;;;;4.30;1.98;;;11.10;99.90;;;;;;5076925;28;20139;-77
2021/05/13 06:22:33;;;;;;;5.28;2.40;;;11.20;99.90;;;;;;5088826;22;20052;-79
2021/05/13 06:24:59;;;;;;;7.50;2.50;;;11.30;99.90;;;;;;5066114;28;20024;-77
2021/05/13 06:27:25;;;;;;;2.63;1.63;;;11.30;99.90;;;;;;5054685;28;20017;-78
2021/05/13 06:29:50;;;;;;;5.70;2.85;;;11.50;99.90;;;;;;5058843;28;20033;-78
2021/05/13 06:32:17;;;;;;;9.23;3.20;;;11.50;99.90;;;;;;5058301;28;20040;-77
2021/05/13 06:34:43;;;;;;;3.90;2.05;;;11.70;99.90;;;;;;5076324;22;20113;-87
2021/05/13 06:37:08;;;;;;;10.57;3.20;;;13.70;99.90;;;;;;5060347;28;20473;-89
2021/05/13 06:39:34;;;;;;;6.65;3.15;;;14.80;99.90;;;;;;5059737;28;20024;-85
2021/05/13 06:42:01;;;;;;;6.15;2.92;;;12.10;99.90;;;;;;5070091;28;20078;-86
2021/05/13 06:44:27;;;;;;;5.70;2.78;;;11.90;99.90;;;;;;5038725;28;20024;-86
2021/05/13 06:46:52;;;;;;;6.10;3.20;;;12.10;99.90;;;;;;5040200;28;20031;-87
2021/05/13 06:49:18;;;;;;;8.20;3.85;;;12.30;99.90;;;;;;5039109;28;20500;-88
2021/05/13 06:51:44;;;;;;;7.18;3.10;;;15.00;99.90;;;;;;5055308;28;20025;-86
2021/05/13 06:54:10;;;;;;;5.95;2.70;;;12.50;99.90;;;;;;5057373;28;20101;-86
2021/05/13 06:56:35;;;;;;;7.15;3.50;;;12.70;99.90;;;;;;5038398;28;20036;-86
2021/05/13 06:59:01;;;;;;;11.25;4.05;;;13.90;99.90;;;;;;5039134;28;20037;-87
2021/05/13 07:01:27;;;;;;;6.25;3.47;;;12.80;99.90;;;;;;5038953;28;20025;-86
2021/05/13 07:03:53;;;;;;;7.85;2.90;;;12.70;99.90;;;;;;5056342;28;20079;-86
2021/05/13 07:06:18;;;;;;;11.82;3.80;;;12.50;99.90;;;;;;5059479;28;20021;-85
2021/05/13 07:08:44;;;;;;;9.63;3.30;;;13.20;99.90;;;;;;5057139;28;20397;-85
2021/05/13 07:11:10;;;;;;;9.02;3.05;;;13.30;99.90;;;;;;5057295;28;20102;-85
2021/05/13 07:13:36;;;;;;;5.70;3.05;;;13.50;99.90;;;;;;5039123;28;20545;-85
2021/05/13 07:16:02;;;;;;;5.15;2.38;;;13.60;99.90;;;;;;5059799;28;20017;-85
2021/05/13 07:18:28;;;;;;;4.90;2.63;;;13.80;99.90;;;;;;5039880;28;20381;-86
2021/05/13 07:20:54;;;;;;;4.03;2.83;;;13.70;99.90;;;;;;5039291;28;20035;-85
2021/05/13 07:23:19;;;;;;;5.40;2.92;;;13.90;99.90;;;;;;5065642;28;20039;-86
2021/05/13 07:25:46;;;;;;;6.75;2.83;;;14.00;99.90;;;;;;5045891;28;20025;-86
2021/05/13 07:28:13;;;;;;;4.43;3.20;;;14.20;99.90;;;;;;5039643;28;20084;-86
2021/05/13 07:30:38;;;;;;;5.93;3.15;;;16.20;99.90;;;;;;5039501;28;20124;-85
2021/05/13 07:33:05;;;;;;;4.95;2.45;;;14.60;99.90;;;;;;5063014;28;20047;-84
2021/05/13 07:35:31;;;;;;;4.75;2.65;;;14.40;99.90;;;;;;5047499;28;20033;-85
2021/05/13 07:37:57;;;;;;;10.13;2.50;;;16.80;99.90;;;;;;5040304;28;20066;-85
2021/05/13 07:40:25;;;;;;;6.57;2.47;;;14.60;99.90;;;;;;5039491;28;20032;-85
2021/05/13 07:42:51;;;;;;;6.88;2.38;;;14.70;99.90;;;;;;5057835;28;20052;-85
2021/05/13 07:45:17;;;;;;;5.78;2.50;;;14.80;99.90;;;;;;5038667;28;20045;-86
2021/05/13 07:47:45;;;;;;;7.72;2.55;;;14.90;99.90;;;;;;5039210;28;20019;-85
2021/05/13 07:50:14;;;;;;;10.73;3.58;;;15.10;99.90;;;;;;5040492;28;20025;-85
2021/05/13 07:52:40;;;;;;;4.05;2.42;;;15.50;99.90;;;;;;5040645;28;20151;-86
2021/05/13 07:55:07;;;;;;;5.22;2.65;;;15.10;99.90;;;;;;5039380;28;20031;-85
2021/05/13 07:57:32;;;;;;;12.50;2.60;;;15.20;99.90;;;;;;5038841;28;20065;-86
2021/05/13 07:59:58;;;;;;;3.25;2.15;;;15.40;99.90;;;;;;5059164;28;20028;-85
2021/05/13 08:02:24;;;;;;;6.68;2.83;;;15.50;99.90;;;;;;5040428;28;20564;-85
2021/05/13 08:04:49;;;;;;;4.65;2.28;;;15.60;99.90;;;;;;5039470;28;20036;-85
2021/05/13 08:07:20;;;;;;;10.02;2.92;;;17.40;99.90;;;;;;5039969;28;20027;-85
2021/05/13 08:09:46;;;;;;;9.57;3.15;;;15.80;99.90;;;;;;5040088;28;20470;-85
2021/05/13 08:12:12;;;;;;;3.55;1.98;;;15.90;99.90;;;;;;5039827;28;20033;-85
2021/05/13 08:14:38;;;;;;;6.20;2.20;;;18.20;99.90;;;;;;5039245;28;20082;-85
2021/05/13 08:17:03;;;;;;;8.38;2.83;;;16.10;99.90;;;;;;5047265;28;20028;-84
2021/05/13 08:19:29;;;;;;;4.78;2.17;;;16.20;99.90;;;;;;5040155;28;20564;-85
2021/05/13 08:21:54;;;;;;;2.88;2.05;;;18.20;99.90;;;;;;5039762;28;20032;-86
2021/05/13 08:24:20;;;;;;;3.55;2.17;;;16.20;99.90;;;;;;5038626;28;20017;-86
2021/05/13 08:26:46;;;;;;;6.07;2.28;;;16.10;99.90;;;;;;5046102;28;20020;-84
2021/05/13 08:29:11;;;;;;;3.00;1.75;;;17.60;99.90;;;;;;5060186;28;20487;-85
2021/05/13 08:31:37;;;;;;;5.70;2.63;;;15.90;99.90;;;;;;5055264;28;20051;-85
2021/05/13 08:34:03;;;;;;;3.33;1.70;;;15.70;99.90;;;;;;5056289;28;20028;-86
2021/05/13 08:36:28;;;;;;;6.85;1.75;;;15.70;99.90;;;;;;5048168;28;20025;-85
2021/05/13 08:38:54;;;;;;;3.90;1.85;;;15.80;99.90;;;;;;5038363;28;20462;-85
2021/05/13 08:41:19;;;;;;;4.95;1.95;;;15.90;99.90;;;;;;5038955;28;20029;-85
2021/05/13 08:43:51;;;;;;;4.80;1.85;;;16.10;99.90;;;;;;5041135;28;20021;-84
2021/05/13 08:46:18;;;;;;;3.03;1.42;;;18.30;99.90;;;;;;5044383;28;20036;-84
2021/05/13 08:48:45;;;;;;;5.78;1.92;;;16.10;99.90;;;;;;5042471;28;20106;-84
2021/05/13 08:51:11;;;;;;;3.85;0.80;;;17.90;99.90;;;;;;5042900;28;20025;-84
2021/05/13 08:53:50;;;;;;;6.55;1.67;;;16.70;99.90;;;;;;5060239;28;20036;-85
2021/05/13 08:56:17;;;;;;;5.35;1.20;;;17.10;99.90;;;;;;5043760;28;20021;-84
2021/05/13 08:58:43;;;;;;;3.38;1.52;;;16.80;99.90;;;;;;5041876;28;20120;-85
2021/05/13 09:01:17;;;;;;;4.22;1.20;;;17.10;98.90;;;;;;5042517;28;20021;-85
2021/05/13 09:03:45;;;;;;;1.58;0.80;;;16.80;98.40;;;;;;5043058;28;20025;-85
2021/05/13 09:06:27;;;;;;;1.83;0.43;;;16.70;99.90;;;;;;5050421;28;20465;-84
2021/05/13 09:09:07;;;;;;;5.40;0.75;;;16.40;99.00;;;;;;5062837;28;20024;-84
2021/05/13 09:11:33;;;;;;;2.45;0.90;;;16.20;98.00;;;;;;5061157;28;20020;-84
2021/05/13 09:14:00;;;;;;;5.15;1.10;;;16.00;99.60;;;;;;5061741;28;20496;-84
2021/05/13 09:16:35;;;;;;;2.55;0.47;;;15.90;99.90;;;;;;5049496;28;20075;-84
2021/05/13 09:19:21;;;;;;;2.80;1.02;;;15.70;99.90;;;;;;5059299;28;20025;-84
2021/05/13 09:21:59;;;;;;;7.90;1.85;;;15.60;99.90;;;;;;5041804;28;20382;-84
2021/05/13 09:24:44;;;;;;;;;;;15.60;99.90;;;;;;5041316;28;20389;-84
2021/05/13 09:27:34;;;;;;;5.78;1.48;;;15.50;99.90;;;;;;5058026;28;19916;-83
2021/05/13 09:30:17;;;;;;;6.00;0.93;;;15.50;99.90;;;;;;5078951;28;20078;-84
2021/05/13 09:32:50;;;;;;;2.78;0.50;;;15.70;99.90;;;;;;5079935;28;20494;-85
2021/05/13 09:35:24;;;;;;;2.58;0.57;;;16.00;97.40;;;;;;5061427;28;20039;-85
2021/05/13 09:37:55;;;;;;;2.28;0.32;;;16.50;96.70;;;;;;5081222;28;20038;-85
2021/05/13 09:40:31;;;;;;;4.55;0.70;;;16.90;97.80;;;;;;5059605;28;20024;-86
2021/05/13 09:43:16;;;;;;;5.88;0.70;;;17.30;92.30;;;;;;5062532;28;20410;-85
2021/05/13 09:45:41;;;;;;;3.20;0.52;;;17.20;88.10;;;;;;5057693;28;20438;-85
2021/05/13 09:48:07;;;;;;;2.60;0.80;;;17.00;92.00;;;;;;5042694;28;20063;-84
2021/05/13 09:50:33;;;;;;;1.90;0.30;;;16.90;92.70;;;;;;5041659;28;20025;-84
2021/05/13 09:53:00;;;;;;;2.25;0.52;;;16.80;92.70;;;;;;5041458;28;20021;-84
2021/05/13 09:55:35;;;;;;;3.50;0.55;;;16.60;93.20;;;;;;5059605;28;20043;-84
2021/05/13 09:58:10;;;;;;;1.25;0.50;;;16.60;93.50;;;;;;5041447;28;20121;-84
2021/05/13 10:00:44;;;;;;;1.92;0.20;;;16.50;94.60;;;;;;5041654;28;20093;-84
2021/05/13 10:03:22;;;;;;;2.03;0.77;;;16.50;95.10;;;;;;5060051;28;20441;-84
2021/05/13 10:05:53;;;;;;;2.00;0.30;;;16.70;94.40;;;;;;5048188;28;20020;-84
2021/05/13 10:08:20;;;;;;;1.80;0.32;;;17.10;96.30;;;;;;5092999;28;20033;-84
2021/05/13 10:10:46;;;;;;;3.35;0.40;;;17.80;90.60;;;;;;5085811;28;20063;-84
2021/05/13 10:13:16;;;;;;;5.10;0.77;;;18.30;91.60;;;;;;5060198;28;20032;-85
2021/05/13 10:15:42;;;;;;;13.98;0.75;;;20.00;82.70;;;;;;5068647;28;20024;-86
2021/05/13 10:18:35;;;;;;;2.53;0.20;;;18.90;75.30;;;;;;5067260;28;20493;-86
2021/05/13 10:21:05;;;;;;;4.25;0.73;;;19.30;78.40;;;;;;5069572;28;20486;-85
2021/05/13 10:23:31;;;;;;;1.98;0.60;;;19.70;80.40;;;;;;5062034;28;20028;-86
2021/05/13 10:25:57;;;;;;;3.60;0.68;;;20.20;77.10;;;;;;5074494;28;20016;-85
2021/05/13 10:28:28;;;;;;;1.55;0.52;;;20.50;74.10;;;;;;5041694;28;20025;-86
2021/05/13 10:31:06;;;;;;;2.35;0.85;;;20.60;67.60;;;;;;5040895;28;20056;-85
2021/05/13 10:33:50;;;;;;;5.03;0.73;;;20.60;69.80;;;;;;5037711;28;20086;-86
2021/05/13 10:36:19;;;;;;;2.70;0.40;;;20.30;65.30;;;;;;5058926;28;20531;-86
2021/05/13 10:38:53;;;;;;;3.67;0.30;;;20.20;66.20;;;;;;5077407;28;20032;-86
2021/05/13 10:41:28;;;;;;;3.13;0.85;;;20.20;65.60;;;;;;5077142;28;20439;-86
2021/05/13 10:43:54;;;;;;;3.92;0.77;;;20.40;66.60;;;;;;5054219;28;20033;-87
2021/05/13 10:46:30;;;;;;;1.42;0.30;;;20.60;64.60;;;;;;5040178;28;20521;-86
2021/05/13 10:49:17;;;;;;;3.33;0.80;;;20.60;63.40;;;;;;5058619;28;20049;-86
2021/05/13 10:51:44;;;;;;;1.52;0.17;;;20.80;65.10;;;;;;5038227;28;20056;-86
2021/05/13 10:54:30;;;;;;;3.15;0.52;;;21.10;62.10;;;;;;5040240;28;20112;-86
2021/05/13 10:57:15;;;;;;;1.75;0.20;;;23.30;63.30;;;;;;5058993;28;20023;-86
2021/05/13 11:00:09;;;;;;;2.63;0.65;;;21.70;61.40;;;;;;5040369;28;20390;-87
2021/05/13 11:02:39;;;;;;;4.80;0.73;;;21.60;57.30;;;;;;5040304;28;20417;-86
2021/05/13 11:05:30;;;;;;;1.98;0.20;;;21.40;59.80;;;;;;5051923;28;20029;-86
2021/05/13 11:08:08;;;;;;;2.38;0.20;;;21.10;59.10;;;;;;5062146;28;20017;-86
2021/05/13 11:11:06;;;;;;;2.42;0.10;;;20.70;60.00;;;;;;5063804;28;20030;-86
2021/05/13 11:13:40;;;;;;;0.65;0.10;;;20.40;60.40;;;;;;5018967;28;20044;-86
2021/05/13 11:16:05;;;;;;;1.45;0.32;;;20.20;62.80;;;;;;5023351;28;20144;-85
2021/05/13 11:18:32;;;;;;;0.63;0.00;;;20.10;60.10;;;;;;5023367;28;20029;-86
2021/05/13 11:20:58;;;;;;;4.53;0.15;;;19.70;59.60;;;;;;5022849;28;20021;-86
2021/05/13 11:23:25;;;;;;;1.08;0.10;;;19.50;59.60;;;;;;5022621;28;20028;-86
2021/05/13 11:26:10;;;;;;;3.03;0.70;;;19.40;59.20;;;;;;5076859;28;20389;-86
2021/05/13 11:28:42;;;;;;;4.28;0.20;;;19.20;59.90;;;;;;5078150;28;20021;-86
2021/05/13 11:31:07;;;;;;;6.50;0.90;;;20.40;61.90;;;;;;5079346;28;20082;-87
2021/05/13 11:33:40;;;;;;;2.13;0.10;;;20.00;58.60;;;;;;5061172;28;20520;-87
2021/05/13 11:36:10;;;;;;;3.88;0.10;;;20.10;58.90;;;;;;5035943;28;20037;-87
2021/05/13 11:38:37;;;;;;;2.65;0.20;;;20.20;56.00;;;;;;5037534;28;20021;-86
2021/05/13 11:41:04;;;;;;;1.15;0.00;;;21.00;57.40;;;;;;5036379;28;20083;-87
2021/05/13 11:43:32;;;;;;;1.33;0.20;;;20.20;59.60;;;;;;5036246;28;20036;-87
2021/05/13 11:46:03;;;;;;;3.93;0.10;;;20.10;61.90;;;;;;5073693;28;20052;-87
2021/05/13 11:48:40;;;;;;;1.15;0.20;;;20.10;65.50;;;;;;5059648;28;20020;-88
2021/05/13 11:51:11;;;;;;;2.20;0.03;;;20.20;65.70;;;;;;5060177;28;20029;-88
2021/05/13 11:53:38;;;;;;;3.22;0.30;;;20.50;64.20;;;;;;5059769;28;20028;-88
2021/05/13 11:56:05;;;;;;;5.25;0.20;;;20.90;62.50;;;;;;5057745;28;20025;-87
2021/05/13 11:58:51;;;;;;;3.20;0.10;;;21.40;62.60;;;;;;5044646;28;20016;-87
2021/05/13 12:01:41;;;;;;;2.47;0.20;;;21.80;59.10;;;;;;5078583;28;20116;-86
2021/05/13 12:04:23;;;;;;;2.10;0.20;;;21.30;59.10;;;;;;5077763;28;20024;-87
2021/05/13 12:07:02;;;;;;;2.20;0.40;;;21.00;56.60;;;;;;5059704;28;20021;-87
2021/05/13 12:09:30;;;;;;;1.20;0.20;;;20.60;59.80;;;;;;5048589;28;20028;-87
2021/05/13 12:11:56;;;;;;;2.67;0.10;;;20.30;58.30;;;;;;5040073;28;20028;-86
2021/05/13 12:14:24;;;;;;;1.42;0.05;;;20.40;61.10;;;;;;5037593;28;20052;-87
2021/05/13 12:16:57;;;;;;;2.33;0.27;;;20.80;56.40;;;;;;5057297;28;20025;-87
2021/05/13 12:19:24;;;;;;;1.35;0.03;;;21.10;60.20;;;;;;5041421;28;20021;-87
2021/05/13 12:21:54;;;;;;;2.67;1.27;;;22.50;60.60;;;;;;5058811;28;20028;-87
2021/05/13 12:24:27;;;;;;;1.65;0.10;;;22.20;58.10;;;;;;5057326;28;20051;-87
2021/05/13 12:26:53;;;;;;;1.92;0.00;;;24.40;55.30;;;;;;5039831;28;20013;-85
2021/05/13 12:29:19;;;;;;;1.40;0.15;;;22.80;51.60;;;;;;5041100;28;20021;-86
2021/05/13 12:31:46;;;;;;;1.38;0.10;;;24.60;55.80;;;;;;5059175;28;20074;-87
2021/05/13 12:34:41;;;;;;;3.67;0.85;;;23.40;52.30;;;;;;5039603;28;20438;-87
2021/05/13 12:37:08;;;;;;;1.27;0.00;;;23.80;53.80;;;;;;5039797;28;20021;-88
2021/05/13 12:39:36;;;;;;;3.90;0.20;;;24.10;52.80;;;;;;5048072;28;20500;-87
2021/05/13 12:42:03;;;;;;;1.55;0.10;;;24.20;51.90;;;;;;5077132;28;20016;-87
2021/05/13 12:44:33;;;;;;;5.60;0.32;;;23.90;48.30;;;;;;5077112;28;20024;-87
2021/05/13 12:47:02;;;;;;;1.08;0.20;;;23.40;50.70;;;;;;5076587;28;20023;-87
2021/05/13 12:49:29;;;;;;;2.42;0.50;;;23.20;53.90;;;;;;5044187;28;20453;-88
2021/05/13 12:51:58;;;;;;;2.05;0.10;;;23.60;54.90;;;;;;5037950;28;20021;-88
2021/05/13 12:54:23;;;;;;;;;;;24.10;52.30;;;;;;5039247;28;20025;-87
2021/05/13 12:56:49;;;;;;;2.28;0.22;;;24.60;51.40;;;;;;5039042;28;19911;-88
2021/05/13 12:59:15;;;;;;;0.52;0.40;;;24.50;49.40;;;;;;5048399;28;20024;-87
2021/05/13 13:01:42;;;;;;;3.50;0.10;;;25.50;48.50;;;;;;5075908;28;20097;-87
2021/05/13 13:04:10;;;;;;;1.83;0.00;;;24.80;50.60;;;;;;5061656;28;20025;-86
2021/05/13 13:06:58;;;;;;;0.47;0.20;;;25.10;49.70;;;;;;5060412;28;20382;-87
2021/05/13 13:09:34;;;;;;;1.85;0.20;;;25.50;48.20;;;;;;5063967;28;20089;-87